createdAt,value
2019-04-07T00:00:53.071Z,11.70
2019-04-07T00:01:52.972Z,11.70
2019-04-07T00:02:52.959Z,11.74
2019-04-07T00:03:53.278Z,11.62
2019-04-07T00:04:53.478Z,11.72
2019-04-07T00:05:52.914Z,11.60
2019-04-07T00:06:53.278Z,11.63
2019-04-07T00:07:53.076Z,11.72
2019-04-07T00:08:53.528Z,11.54
2019-04-07T00:09:52.876Z,11.62
2019-04-07T00:10:52.906Z,11.51
2019-04-07T00:11:53.506Z,11.59
2019-04-07T00:12:52.840Z,11.51
2019-04-07T00:13:52.833Z,11.53
2019-04-07T00:14:52.834Z,11.54
2019-04-07T00:15:52.827Z,11.57
2019-04-07T00:16:53.662Z,11.62
2019-04-07T00:17:53.200Z,11.54
2019-04-07T00:18:52.783Z,11.44
2019-04-07T00:19:52.776Z,11.42
2019-04-07T00:20:52.891Z,11.51
2019-04-07T00:21:52.744Z,11.41
2019-04-07T00:22:52.822Z,11.46
2019-04-07T00:23:53.147Z,11.38
2019-04-07T00:24:52.709Z,11.31
2019-04-07T00:25:52.702Z,11.39
2019-04-07T00:26:52.714Z,11.36
2019-04-07T00:27:52.793Z,11.30
2019-04-07T00:28:53.156Z,11.33
2019-04-07T00:29:52.678Z,11.35
2019-04-07T00:30:52.647Z,11.28
2019-04-07T00:31:52.633Z,11.31
2019-04-07T00:32:52.658Z,11.28
2019-04-07T00:33:53.027Z,11.23
2019-04-07T00:34:53.002Z,11.27
2019-04-07T00:35:52.598Z,11.19
2019-04-07T00:36:52.585Z,11.20
2019-04-07T00:37:52.884Z,11.24
2019-04-07T00:38:52.603Z,11.23
2019-04-07T00:39:53.250Z,11.21
2019-04-07T00:40:52.652Z,11.20
2019-04-07T00:41:52.988Z,11.17
2019-04-07T00:42:52.517Z,11.11
2019-04-07T00:43:52.508Z,11.09
2019-04-07T00:44:53.169Z,11.20
2019-04-07T00:45:52.534Z,11.16
2019-04-07T00:46:52.568Z,11.08
2019-04-07T00:47:52.652Z,11.08
2019-04-07T00:48:52.955Z,10.98
2019-04-07T00:49:52.441Z,11.08
2019-04-07T00:50:52.426Z,11.01
2019-04-07T00:51:52.945Z,10.95
2019-04-07T00:52:52.529Z,10.95
2019-04-07T00:53:53.050Z,10.95
2019-04-07T00:54:52.426Z,10.91
2019-04-07T00:55:52.926Z,10.94
2019-04-07T00:56:52.361Z,10.91
2019-04-07T00:57:52.947Z,10.98
2019-04-07T00:58:52.457Z,10.99
2019-04-07T00:59:52.332Z,11.01
2019-04-07T01:00:53.024Z,10.90
2019-04-07T01:01:52.608Z,10.95
2019-04-07T01:02:52.930Z,10.94
2019-04-07T01:03:52.304Z,10.95
2019-04-07T01:04:52.289Z,10.93
2019-04-07T01:05:52.298Z,10.93
2019-04-07T01:06:52.690Z,10.84
2019-04-07T01:07:52.332Z,10.91
2019-04-07T01:08:52.483Z,10.99
2019-04-07T01:09:52.223Z,10.93
2019-04-07T01:10:52.500Z,10.94
2019-04-07T01:11:52.370Z,10.93
2019-04-07T01:12:52.253Z,10.90
2019-04-07T01:13:52.791Z,10.83
2019-04-07T01:14:52.199Z,10.93
2019-04-07T01:15:52.238Z,10.84
2019-04-07T01:16:52.878Z,10.80
2019-04-07T01:17:52.365Z,10.81
2019-04-07T01:18:52.143Z,10.75
2019-04-07T01:19:52.131Z,10.76
2019-04-07T01:20:52.100Z,10.78
2019-04-07T01:21:52.097Z,10.72
2019-04-07T01:22:52.732Z,10.69
2019-04-07T01:23:52.112Z,10.76
2019-04-07T01:24:52.662Z,10.70
2019-04-07T01:25:52.265Z,10.66
2019-04-07T01:26:52.544Z,10.60
2019-04-07T01:27:52.037Z,10.58
2019-04-07T01:28:54.306Z,10.58
2019-04-07T01:29:52.041Z,10.65
2019-04-07T01:30:52.003Z,10.58
2019-04-07T01:31:51.988Z,10.49
2019-04-07T01:32:52.187Z,10.52
2019-04-07T01:33:52.194Z,10.52
2019-04-07T01:34:52.022Z,10.46
2019-04-07T01:35:51.979Z,10.54
2019-04-07T01:36:51.931Z,10.46
2019-04-07T01:37:51.918Z,10.47
2019-04-07T01:38:52.121Z,10.49
2019-04-07T01:39:52.646Z,10.47
2019-04-07T01:40:51.981Z,10.43
2019-04-07T01:41:52.538Z,10.35
2019-04-07T01:42:52.189Z,10.49
2019-04-07T01:43:52.498Z,10.47
2019-04-07T01:44:51.931Z,10.43
2019-04-07T01:45:52.465Z,10.46
2019-04-07T01:46:52.479Z,10.43
2019-04-07T01:47:52.400Z,10.46
2019-04-07T01:48:52.101Z,10.35
2019-04-07T01:49:52.350Z,10.46
2019-04-07T01:50:51.858Z,10.36
2019-04-07T01:51:51.872Z,10.38
2019-04-07T01:52:51.923Z,10.49
2019-04-07T01:53:51.977Z,10.31
2019-04-07T01:54:51.738Z,10.32
2019-04-07T01:55:52.093Z,10.38
2019-04-07T01:56:51.709Z,10.32
2019-04-07T01:57:51.892Z,10.35
2019-04-07T01:58:51.694Z,10.31
2019-04-07T01:59:51.938Z,10.32
2019-04-07T02:00:52.160Z,10.29
2019-04-07T02:01:51.772Z,10.35
2019-04-07T02:02:52.054Z,10.31
2019-04-07T02:03:51.666Z,10.35
2019-04-07T02:04:52.136Z,10.38
2019-04-07T02:05:58.657Z,10.28
2019-04-07T02:06:52.909Z,10.25
2019-04-07T02:07:52.331Z,10.32
2019-04-07T02:08:51.752Z,10.32
2019-04-07T02:09:52.100Z,10.26
2019-04-07T02:10:51.645Z,10.24
2019-04-07T02:11:51.557Z,10.26
2019-04-07T02:12:51.977Z,10.26
2019-04-07T02:13:51.642Z,10.26
2019-04-07T02:14:52.143Z,10.17
2019-04-07T02:15:51.521Z,10.16
2019-04-07T02:16:51.600Z,10.17
2019-04-07T02:17:51.587Z,10.10
2019-04-07T02:18:51.492Z,10.13
2019-04-07T02:19:51.478Z,10.04
2019-04-07T02:20:51.614Z,10.14
2019-04-07T02:21:51.553Z,10.13
2019-04-07T02:22:52.042Z,10.10
2019-04-07T02:23:51.453Z,10.13
2019-04-07T02:24:51.537Z,10.06
2019-04-07T02:25:51.543Z,10.17
2019-04-07T02:26:51.388Z,10.10
2019-04-07T02:27:51.391Z,10.10
2019-04-07T02:28:51.371Z,10.04
2019-04-07T02:29:51.367Z,10.06
2019-04-07T02:30:52.191Z,10.04
2019-04-07T02:31:52.245Z,10.07
2019-04-07T02:32:52.376Z,9.96
2019-04-07T02:33:52.323Z,10.06
2019-04-07T02:34:51.320Z,9.93
2019-04-07T02:35:52.400Z,10.02
2019-04-07T02:36:51.976Z,9.98
2019-04-07T02:37:51.321Z,9.86
2019-04-07T02:38:51.832Z,9.92
2019-04-07T02:39:51.250Z,9.86
2019-04-07T02:40:51.471Z,9.98
2019-04-07T02:41:51.766Z,9.96
2019-04-07T02:42:51.634Z,9.85
2019-04-07T02:43:51.330Z,9.89
2019-04-07T02:44:51.204Z,9.96
2019-04-07T02:45:51.276Z,9.86
2019-04-07T02:46:51.660Z,9.92
2019-04-07T02:47:51.346Z,9.99
2019-04-07T02:48:51.315Z,9.91
2019-04-07T02:49:51.781Z,9.89
2019-04-07T02:50:51.138Z,9.89
2019-04-07T02:51:51.129Z,9.89
2019-04-07T02:52:51.437Z,9.86
2019-04-07T02:53:51.153Z,9.89
2019-04-07T02:54:51.499Z,9.77
2019-04-07T02:55:51.117Z,9.80
2019-04-07T02:56:52.198Z,9.88
2019-04-07T02:57:51.073Z,9.80
2019-04-07T02:58:51.442Z,9.78
2019-04-07T02:59:51.499Z,9.68
2019-04-07T03:00:51.020Z,9.74
2019-04-07T03:01:52.015Z,9.65
2019-04-07T03:02:51.924Z,9.74
2019-04-07T03:03:50.997Z,9.65
2019-04-07T03:04:51.216Z,9.59
2019-04-07T03:05:50.993Z,9.65
2019-04-07T03:06:53.045Z,9.65
2019-04-07T03:07:50.951Z,9.62
2019-04-07T03:08:50.938Z,9.63
2019-04-07T03:09:51.689Z,9.62
2019-04-07T03:10:51.395Z,9.65
2019-04-07T03:11:51.058Z,9.56
2019-04-07T03:12:51.197Z,9.58
2019-04-07T03:13:51.942Z,9.48
2019-04-07T03:14:52.913Z,9.49
2019-04-07T03:15:50.857Z,9.50
2019-04-07T03:16:51.539Z,9.49
2019-04-07T03:17:51.835Z,9.49
2019-04-07T03:18:50.845Z,9.52
2019-04-07T03:19:50.814Z,9.45
2019-04-07T03:20:51.529Z,9.35
2019-04-07T03:21:50.798Z,9.35
2019-04-07T03:22:50.910Z,9.37
2019-04-07T03:23:51.402Z,9.31
2019-04-07T03:24:51.560Z,9.40
2019-04-07T03:25:50.996Z,9.35
2019-04-07T03:26:51.411Z,9.41
2019-04-07T03:27:51.554Z,9.38
2019-04-07T03:28:51.414Z,9.35
2019-04-07T03:29:50.710Z,9.37
2019-04-07T03:30:51.942Z,9.30
2019-04-07T03:31:51.563Z,9.37
2019-04-07T03:32:53.467Z,9.27
2019-04-07T03:33:52.146Z,9.31
2019-04-07T03:34:51.998Z,9.30
2019-04-07T03:35:53.142Z,9.23
2019-04-07T03:37:15.379Z,9.30
2019-04-07T03:37:52.835Z,9.26
2019-04-07T03:38:50.644Z,9.27
2019-04-07T03:39:51.278Z,9.31
2019-04-07T03:40:51.528Z,9.17
2019-04-07T03:41:51.244Z,9.20
2019-04-07T03:42:51.176Z,9.26
2019-04-07T03:43:50.860Z,9.22
2019-04-07T03:44:51.199Z,9.15
2019-04-07T03:45:50.532Z,9.17
2019-04-07T03:46:50.517Z,9.15
2019-04-07T03:47:50.576Z,9.15
2019-04-07T03:48:50.890Z,9.04
2019-04-07T03:49:50.886Z,9.04
2019-04-07T03:50:50.840Z,9.03
2019-04-07T03:51:51.404Z,9.12
2019-04-07T03:52:51.064Z,9.06
2019-04-07T03:53:50.573Z,9.03
2019-04-07T03:54:50.865Z,9.10
2019-04-07T03:55:51.259Z,9.04
2019-04-07T03:56:50.419Z,9.01
2019-04-07T03:57:50.695Z,8.98
2019-04-07T03:58:50.776Z,9.03
2019-04-07T03:59:51.318Z,8.93
2019-04-07T04:00:50.382Z,8.85
2019-04-07T04:01:50.353Z,9.01
2019-04-07T04:02:50.579Z,9.01
2019-04-07T04:03:51.345Z,8.96
2019-04-07T04:04:51.401Z,8.80
2019-04-07T04:05:52.562Z,8.94
2019-04-07T04:06:51.382Z,8.97
2019-04-07T04:07:50.286Z,8.94
2019-04-07T04:08:50.971Z,8.91
2019-04-07T04:09:50.387Z,8.94
2019-04-07T04:10:50.255Z,8.94
2019-04-07T04:11:50.245Z,8.94
2019-04-07T04:12:51.163Z,8.89
2019-04-07T04:13:51.011Z,8.79
2019-04-07T04:14:50.801Z,8.85
2019-04-07T04:15:51.450Z,8.89
2019-04-07T04:16:50.940Z,8.88
2019-04-07T04:17:51.206Z,8.88
2019-04-07T04:18:50.364Z,8.88
2019-04-07T04:19:50.189Z,8.86
2019-04-07T04:20:50.174Z,8.91
2019-04-07T04:21:50.977Z,8.86
2019-04-07T04:22:50.624Z,8.75
2019-04-07T04:23:50.108Z,8.79
2019-04-07T04:24:50.276Z,8.86
2019-04-07T04:25:50.111Z,8.80
2019-04-07T04:26:50.169Z,8.82
2019-04-07T04:27:50.822Z,8.75
2019-04-07T04:28:50.741Z,8.82
2019-04-07T04:29:51.924Z,8.80
2019-04-07T04:30:50.661Z,8.67
2019-04-07T04:31:50.039Z,8.67
2019-04-07T04:32:50.041Z,8.71
2019-04-07T04:33:50.010Z,8.76
2019-04-07T04:34:50.181Z,8.73
2019-04-07T04:35:49.983Z,8.71
2019-04-07T04:36:50.300Z,8.73
2019-04-07T04:37:52.285Z,8.70
2019-04-07T04:38:50.317Z,8.67
2019-04-07T04:39:50.995Z,8.67
2019-04-07T04:40:50.587Z,8.68
2019-04-07T04:41:50.802Z,8.75
2019-04-07T04:42:50.421Z,8.68
2019-04-07T04:43:49.894Z,8.64
2019-04-07T04:44:49.907Z,8.67
2019-04-07T04:45:50.470Z,8.76
2019-04-07T04:46:49.877Z,8.71
2019-04-07T04:47:49.848Z,8.76
2019-04-07T04:48:49.841Z,8.80
2019-04-07T04:49:50.322Z,8.64
2019-04-07T04:50:50.413Z,8.70
2019-04-07T04:51:50.178Z,8.65
2019-04-07T04:52:49.810Z,8.65
2019-04-07T04:53:50.372Z,8.64
2019-04-07T04:54:49.801Z,8.61
2019-04-07T04:55:49.762Z,8.63
2019-04-07T04:56:50.353Z,8.68
2019-04-07T04:57:49.979Z,8.64
2019-04-07T04:58:50.702Z,8.63
2019-04-07T04:59:50.690Z,8.64
2019-04-07T05:00:50.694Z,8.60
2019-04-07T05:01:49.953Z,8.55
2019-04-07T05:02:49.719Z,8.52
2019-04-07T05:03:49.686Z,8.50
2019-04-07T05:04:49.809Z,8.55
2019-04-07T05:05:49.654Z,8.55
2019-04-07T05:06:49.640Z,8.58
2019-04-07T05:07:57.658Z,8.57
2019-04-07T05:08:51.163Z,8.52
2019-04-07T05:09:53.058Z,8.60
2019-04-07T05:10:49.600Z,8.58
2019-04-07T05:11:49.716Z,8.55
2019-04-07T05:12:50.253Z,8.55
2019-04-07T05:13:50.169Z,8.49
2019-04-07T05:14:50.192Z,8.43
2019-04-07T05:15:50.202Z,8.47
2019-04-07T05:16:49.526Z,8.46
2019-04-07T05:17:49.516Z,8.49
2019-04-07T05:18:49.511Z,8.49
2019-04-07T05:19:49.912Z,8.57
2019-04-07T05:20:49.947Z,8.49
2019-04-07T05:21:49.537Z,8.47
2019-04-07T05:22:49.483Z,8.52
2019-04-07T05:23:49.466Z,8.47
2019-04-07T05:24:50.393Z,8.49
2019-04-07T05:25:49.474Z,8.49
2019-04-07T05:26:49.431Z,8.47
2019-04-07T05:27:49.427Z,8.49
2019-04-07T05:28:49.399Z,8.49
2019-04-07T05:29:49.534Z,8.49
2019-04-07T05:30:50.120Z,8.49
2019-04-07T05:31:49.406Z,8.57
2019-04-07T05:32:49.377Z,8.46
2019-04-07T05:33:49.849Z,8.50
2019-04-07T05:34:50.452Z,8.46
2019-04-07T05:35:49.596Z,8.40
2019-04-07T05:36:49.406Z,8.49
2019-04-07T05:37:59.935Z,8.45
2019-04-07T05:38:50.389Z,8.46
2019-04-07T05:39:49.277Z,8.49
2019-04-07T05:40:50.024Z,8.49
2019-04-07T05:41:49.275Z,8.52
2019-04-07T05:42:49.715Z,8.49
2019-04-07T05:43:49.269Z,8.49
2019-04-07T05:44:49.229Z,8.46
2019-04-07T05:45:49.882Z,8.45
2019-04-07T05:46:49.768Z,8.60
2019-04-07T05:47:50.798Z,8.55
2019-04-07T05:48:50.499Z,8.50
2019-04-07T05:49:49.903Z,8.50
2019-04-07T05:50:49.175Z,8.43
2019-04-07T05:51:49.174Z,8.57
2019-04-07T05:52:49.885Z,8.49
2019-04-07T05:53:49.234Z,8.61
2019-04-07T05:54:49.949Z,8.50
2019-04-07T05:55:49.198Z,8.47
2019-04-07T05:56:49.278Z,8.49
2019-04-07T05:57:49.701Z,8.58
2019-04-07T05:58:49.075Z,8.58
2019-04-07T05:59:49.060Z,8.57
2019-04-07T06:00:50.176Z,8.57
2019-04-07T06:01:51.583Z,8.55
2019-04-07T06:02:49.040Z,8.63
2019-04-07T06:03:49.022Z,8.50
2019-04-07T06:04:49.289Z,8.55
2019-04-07T06:05:51.124Z,8.57
2019-04-07T06:06:52.701Z,8.52
2019-04-07T06:07:50.515Z,8.55
2019-04-07T06:08:49.730Z,8.60
2019-04-07T06:09:51.197Z,8.60
2019-04-07T06:10:48.943Z,8.67
2019-04-07T06:11:48.930Z,8.65
2019-04-07T06:12:49.220Z,8.55
2019-04-07T06:13:48.947Z,8.68
2019-04-07T06:14:48.908Z,8.63
2019-04-07T06:15:51.159Z,8.73
2019-04-07T06:16:52.467Z,8.73
2019-04-07T06:17:49.060Z,8.76
2019-04-07T06:18:48.864Z,8.80
2019-04-07T06:19:51.363Z,8.93
2019-04-07T06:20:48.834Z,8.80
2019-04-07T06:21:49.842Z,8.80
2019-04-07T06:22:52.626Z,8.79
2019-04-07T06:23:48.805Z,8.89
2019-04-07T06:24:48.816Z,8.82
2019-04-07T06:25:48.803Z,8.96
2019-04-07T06:26:49.954Z,9.04
2019-04-07T06:27:48.957Z,8.96
2019-04-07T06:28:52.149Z,9.01
2019-04-07T06:29:50.117Z,8.97
2019-04-07T06:30:48.725Z,9.06
2019-04-07T06:31:49.434Z,8.96
2019-04-07T06:32:48.770Z,9.03
2019-04-07T06:33:49.119Z,9.08
2019-04-07T06:34:49.908Z,9.19
2019-04-07T06:35:48.676Z,9.17
2019-04-07T06:36:53.610Z,9.12
2019-04-07T06:37:49.765Z,9.16
2019-04-07T06:38:52.312Z,9.13
2019-04-07T06:39:50.732Z,9.16
2019-04-07T06:40:52.741Z,9.13
2019-04-07T06:41:49.605Z,9.23
2019-04-07T06:42:48.851Z,9.27
2019-04-07T06:43:48.604Z,9.22
2019-04-07T06:44:51.657Z,9.26
2019-04-07T06:45:49.114Z,9.17
2019-04-07T06:46:49.175Z,9.27
2019-04-07T06:47:48.683Z,9.30
2019-04-07T06:48:48.766Z,9.35
2019-04-07T06:49:48.533Z,9.27
2019-04-07T06:50:53.131Z,9.26
2019-04-07T06:51:50.092Z,9.31
2019-04-07T06:52:48.803Z,9.38
2019-04-07T06:53:49.097Z,9.42
2019-04-07T06:54:50.094Z,9.42
2019-04-07T06:55:49.682Z,9.35
2019-04-07T06:56:49.021Z,9.42
2019-04-07T06:57:49.119Z,9.45
2019-04-07T06:58:48.428Z,9.56
2019-04-07T06:59:49.147Z,9.53
2019-04-07T07:00:49.273Z,9.60
2019-04-07T07:01:49.254Z,9.65
2019-04-07T07:02:48.849Z,9.67
2019-04-07T07:03:48.582Z,9.67
2019-04-07T07:04:48.556Z,9.58
2019-04-07T07:05:48.375Z,9.59
2019-04-07T07:06:48.471Z,9.56
2019-04-07T07:07:49.727Z,9.63
2019-04-07T07:08:48.601Z,9.70
2019-04-07T07:09:48.296Z,9.74
2019-04-07T07:10:50.489Z,9.78
2019-04-07T07:11:48.596Z,9.77
2019-04-07T07:12:48.284Z,9.81
2019-04-07T07:13:48.911Z,9.88
2019-04-07T07:14:48.249Z,9.96
2019-04-07T07:15:48.354Z,9.86
2019-04-07T07:16:48.998Z,9.98
2019-04-07T07:17:50.703Z,9.91
2019-04-07T07:18:48.769Z,9.85
2019-04-07T07:19:48.788Z,9.99
2019-04-07T07:20:48.180Z,10.04
2019-04-07T07:21:48.975Z,10.06
2019-04-07T07:22:49.455Z,10.10
2019-04-07T07:23:49.071Z,10.17
2019-04-07T07:24:48.167Z,10.13
2019-04-07T07:25:48.606Z,10.18
2019-04-07T07:26:48.113Z,10.18
2019-04-07T07:27:48.737Z,10.13
2019-04-07T07:28:48.094Z,10.10
2019-04-07T07:29:51.656Z,10.16
2019-04-07T07:30:51.038Z,10.20
2019-04-07T07:31:51.153Z,10.20
2019-04-07T07:32:48.619Z,10.28
2019-04-07T07:33:48.462Z,10.32
2019-04-07T07:34:48.046Z,10.38
2019-04-07T07:35:49.214Z,10.32
2019-04-07T07:36:52.946Z,10.32
2019-04-07T07:37:49.792Z,10.47
2019-04-07T07:38:57.611Z,10.35
2019-04-07T07:39:49.275Z,10.43
2019-04-07T07:40:49.344Z,10.46
2019-04-07T07:41:50.304Z,10.46
2019-04-07T07:42:50.686Z,10.42
2019-04-07T07:43:48.209Z,10.46
2019-04-07T07:44:48.336Z,10.46
2019-04-07T07:45:48.624Z,10.44
2019-04-07T07:46:50.395Z,10.47
2019-04-07T07:47:51.314Z,10.44
2019-04-07T07:48:48.914Z,10.52
2019-04-07T07:49:48.261Z,10.46
2019-04-07T07:50:48.673Z,10.47
2019-04-07T07:51:48.730Z,10.52
2019-04-07T07:52:51.370Z,10.60
2019-04-07T07:53:48.814Z,10.66
2019-04-07T07:54:48.504Z,10.62
2019-04-07T07:55:47.792Z,10.63
2019-04-07T07:56:50.231Z,10.65
2019-04-07T07:57:48.169Z,10.68
2019-04-07T07:58:48.330Z,10.68
2019-04-07T07:59:47.749Z,10.76
2019-04-07T08:00:47.753Z,10.78
2019-04-07T08:01:50.267Z,10.84
2019-04-07T08:02:50.086Z,10.87
2019-04-07T08:03:51.749Z,10.90
2019-04-07T08:04:48.797Z,10.91
2019-04-07T08:05:47.684Z,10.90
2019-04-07T08:06:47.929Z,10.86
2019-04-07T08:07:49.457Z,10.91
2019-04-07T08:08:48.534Z,10.91
2019-04-07T08:09:48.044Z,10.94
2019-04-07T08:10:47.737Z,10.88
2019-04-07T08:11:47.851Z,10.90
2019-04-07T08:12:49.525Z,10.99
2019-04-07T08:13:47.625Z,11.06
2019-04-07T08:14:52.201Z,11.09
2019-04-07T08:15:49.253Z,11.11
2019-04-07T08:16:47.876Z,11.24
2019-04-07T08:17:47.566Z,11.27
2019-04-07T08:18:47.542Z,11.39
2019-04-07T08:19:47.711Z,11.53
2019-04-07T08:20:47.899Z,11.57
2019-04-07T08:21:50.347Z,11.53
2019-04-07T08:22:48.187Z,11.53
2019-04-07T08:23:48.164Z,11.72
2019-04-07T08:24:49.608Z,11.75
2019-04-07T08:25:47.521Z,11.78
2019-04-07T08:26:48.164Z,11.82
2019-04-07T08:27:47.699Z,11.88
2019-04-07T08:28:48.170Z,11.87
2019-04-07T08:29:47.493Z,11.88
2019-04-07T08:30:47.722Z,11.84
2019-04-07T08:31:51.512Z,11.82
2019-04-07T08:32:48.837Z,11.93
2019-04-07T08:33:50.365Z,11.90
2019-04-07T08:34:47.380Z,11.88
2019-04-07T08:35:48.028Z,11.94
2019-04-07T08:36:48.169Z,11.94
2019-04-07T08:37:48.683Z,11.84
2019-04-07T08:38:47.723Z,11.93
2019-04-07T08:39:47.567Z,11.97
2019-04-07T08:40:47.889Z,12.00
2019-04-07T08:41:47.296Z,12.05
2019-04-07T08:42:49.063Z,12.13
2019-04-07T08:43:47.300Z,12.01
2019-04-07T08:44:47.404Z,12.15
2019-04-07T08:45:47.260Z,12.19
2019-04-07T08:46:47.265Z,12.04
2019-04-07T08:47:49.027Z,12.18
2019-04-07T08:48:50.394Z,12.15
2019-04-07T08:49:47.214Z,12.15
2019-04-07T08:50:47.449Z,12.12
2019-04-07T08:51:47.193Z,12.15
2019-04-07T08:52:47.810Z,12.16
2019-04-07T08:53:47.356Z,12.13
2019-04-07T08:54:50.325Z,11.98
2019-04-07T08:55:48.737Z,12.01
2019-04-07T08:56:47.941Z,12.07
2019-04-07T08:57:47.162Z,12.07
2019-04-07T08:58:47.777Z,12.01
2019-04-07T08:59:47.101Z,12.03
2019-04-07T09:00:50.944Z,12.07
2019-04-07T09:01:47.730Z,11.97
2019-04-07T09:02:59.194Z,12.11
2019-04-07T09:03:48.587Z,12.13
2019-04-07T09:04:49.749Z,12.23
2019-04-07T09:05:47.789Z,12.31
2019-04-07T09:06:47.505Z,12.26
2019-04-07T09:07:47.183Z,12.37
2019-04-07T09:08:47.007Z,12.40
2019-04-07T09:09:48.572Z,12.66
2019-04-07T09:10:49.160Z,12.77
2019-04-07T09:11:47.075Z,12.94
2019-04-07T09:12:46.985Z,13.13
2019-04-07T09:13:47.578Z,13.31
2019-04-07T09:14:46.983Z,13.38
2019-04-07T09:15:48.835Z,13.29
2019-04-07T09:16:49.368Z,13.38
2019-04-07T09:17:48.716Z,13.48
2019-04-07T09:18:55.018Z,13.44
2019-04-07T09:19:47.888Z,13.53
2019-04-07T09:20:49.098Z,13.66
2019-04-07T09:21:50.141Z,13.68
2019-04-07T09:22:47.475Z,13.76
2019-04-07T09:23:46.884Z,13.80
2019-04-07T09:24:47.226Z,13.76
2019-04-07T09:25:46.830Z,13.87
2019-04-07T09:26:46.880Z,13.84
2019-04-07T09:27:48.608Z,13.88
2019-04-07T09:28:47.590Z,13.80
2019-04-07T09:29:47.773Z,13.72
2019-04-07T09:30:47.157Z,13.59
2019-04-07T09:31:47.618Z,13.63
2019-04-07T09:32:46.740Z,13.57
2019-04-07T09:33:48.946Z,13.47
2019-04-07T09:34:50.548Z,13.50
2019-04-07T09:35:47.737Z,13.48
2019-04-07T09:36:49.945Z,13.41
2019-04-07T09:37:47.106Z,13.36
2019-04-07T09:38:47.035Z,13.35
2019-04-07T09:39:56.939Z,13.32
2019-04-07T09:40:48.443Z,13.31
2019-04-07T09:41:46.668Z,13.31
2019-04-07T09:42:46.676Z,13.35
2019-04-07T09:43:46.623Z,13.24
2019-04-07T09:44:46.791Z,13.41
2019-04-07T09:45:46.654Z,13.54
2019-04-07T09:46:49.966Z,13.66
2019-04-07T09:47:47.782Z,13.80
2019-04-07T09:48:50.987Z,13.73
2019-04-07T09:49:49.312Z,13.83
2019-04-07T09:50:47.063Z,13.93
2019-04-07T09:51:46.605Z,13.98
2019-04-07T09:52:48.852Z,14.21
2019-04-07T09:53:48.800Z,14.35
2019-04-07T09:54:47.237Z,14.36
2019-04-07T09:55:47.266Z,14.56
2019-04-07T09:56:47.207Z,14.57
2019-04-07T09:57:47.321Z,14.87
2019-04-07T09:58:46.957Z,15.05
2019-04-07T09:59:50.779Z,15.19
2019-04-07T10:00:47.732Z,15.18
2019-04-07T10:01:46.431Z,15.27
2019-04-07T10:02:46.998Z,15.16
2019-04-07T10:03:46.413Z,15.15
2019-04-07T10:04:46.415Z,15.27
2019-04-07T10:05:46.417Z,15.22
2019-04-07T10:06:46.380Z,15.23
2019-04-07T10:07:46.870Z,15.38
2019-04-07T10:08:46.377Z,15.51
2019-04-07T10:09:46.350Z,15.52
2019-04-07T10:10:47.186Z,15.59
2019-04-07T10:11:46.320Z,15.70
2019-04-07T10:12:46.317Z,15.74
2019-04-07T10:13:46.413Z,15.88
2019-04-07T10:14:46.607Z,15.89
2019-04-07T10:15:46.302Z,15.98
2019-04-07T10:16:46.267Z,16.01
2019-04-07T10:17:47.061Z,16.04
2019-04-07T10:18:46.336Z,16.03
2019-04-07T10:19:47.529Z,16.06
2019-04-07T10:20:46.712Z,16.08
2019-04-07T10:21:46.225Z,16.18
2019-04-07T10:22:46.247Z,16.32
2019-04-07T10:23:49.252Z,16.42
2019-04-07T10:24:46.198Z,16.55
2019-04-07T10:25:46.615Z,16.54
2019-04-07T10:26:46.154Z,16.62
2019-04-07T10:27:46.439Z,16.59
2019-04-07T10:28:46.207Z,16.57
2019-04-07T10:29:46.296Z,16.70
2019-04-07T10:30:46.119Z,16.75
2019-04-07T10:31:46.384Z,16.65
2019-04-07T10:32:46.337Z,16.54
2019-04-07T10:33:46.157Z,16.50
2019-04-07T10:34:46.139Z,16.50
2019-04-07T10:35:46.773Z,16.52
2019-04-07T10:36:46.069Z,16.59
2019-04-07T10:37:46.077Z,16.80
2019-04-07T10:38:46.031Z,16.99
2019-04-07T10:39:46.248Z,17.18
2019-04-07T10:40:46.596Z,17.36
2019-04-07T10:41:46.422Z,17.40
2019-04-07T10:42:46.022Z,17.49
2019-04-07T10:43:46.709Z,17.45
2019-04-07T10:44:46.856Z,17.46
2019-04-07T10:45:45.973Z,17.54
2019-04-07T10:46:46.095Z,17.51
2019-04-07T10:47:46.150Z,17.60
2019-04-07T10:48:46.694Z,17.70
2019-04-07T10:49:57.539Z,17.74
2019-04-07T10:50:47.005Z,17.77
2019-04-07T10:51:46.008Z,17.60
2019-04-07T10:52:45.992Z,17.74
2019-04-07T10:53:45.861Z,17.73
2019-04-07T10:54:45.863Z,17.83
2019-04-07T10:55:45.850Z,17.87
2019-04-07T10:56:46.070Z,17.98
2019-04-07T10:57:45.916Z,18.05
2019-04-07T10:58:46.100Z,18.04
2019-04-07T10:59:46.488Z,18.04
2019-04-07T11:00:48.827Z,18.04
2019-04-07T11:01:45.835Z,18.10
2019-04-07T11:02:45.958Z,18.02
2019-04-07T11:03:45.841Z,17.99
2019-04-07T11:04:46.191Z,17.99
2019-04-07T11:05:45.795Z,17.95
2019-04-07T11:06:46.160Z,18.11
2019-04-07T11:07:45.799Z,18.16
2019-04-07T11:08:46.545Z,18.29
2019-04-07T11:09:45.866Z,18.53
2019-04-07T11:10:46.382Z,18.64
2019-04-07T11:11:48.102Z,18.66
2019-04-07T11:12:45.806Z,18.72
2019-04-07T11:13:45.796Z,18.89
2019-04-07T11:14:45.639Z,19.02
2019-04-07T11:15:45.798Z,19.01
2019-04-07T11:16:46.298Z,19.01
2019-04-07T11:17:45.611Z,19.06
2019-04-07T11:18:45.606Z,19.07
2019-04-07T11:19:45.589Z,19.07
2019-04-07T11:20:45.634Z,18.97
2019-04-07T11:21:45.569Z,18.91
2019-04-07T11:22:45.664Z,18.89
2019-04-07T11:23:45.538Z,18.96
2019-04-07T11:24:45.882Z,19.05
2019-04-07T11:25:46.124Z,19.07
2019-04-07T11:26:45.554Z,19.16
2019-04-07T11:27:46.161Z,19.07
2019-04-07T11:28:45.541Z,19.07
2019-04-07T11:29:45.496Z,19.09
2019-04-07T11:30:45.530Z,19.10
2019-04-07T11:31:45.452Z,19.21
2019-04-07T11:32:46.143Z,19.17
2019-04-07T11:33:45.427Z,19.27
2019-04-07T11:34:45.540Z,19.34
2019-04-07T11:35:45.641Z,19.40
2019-04-07T11:36:45.397Z,19.34
2019-04-07T11:37:45.884Z,19.34
2019-04-07T11:38:45.487Z,19.42
2019-04-07T11:39:46.274Z,19.42
2019-04-07T11:40:50.840Z,19.35
2019-04-07T11:41:47.105Z,19.28
2019-04-07T11:42:46.093Z,19.39
2019-04-07T11:43:45.347Z,19.43
2019-04-07T11:44:45.607Z,19.53
2019-04-07T11:45:56.517Z,19.52
2019-04-07T11:46:46.488Z,19.62
2019-04-07T11:47:45.983Z,19.61
2019-04-07T11:48:45.301Z,19.67
2019-04-07T11:49:46.115Z,19.67
2019-04-07T11:50:46.056Z,19.62
2019-04-07T11:51:45.238Z,19.62
2019-04-07T11:52:45.251Z,19.75
2019-04-07T11:53:45.931Z,19.86
2019-04-07T11:54:45.220Z,19.79
2019-04-07T11:55:45.471Z,19.92
2019-04-07T11:56:45.951Z,19.83
2019-04-07T11:57:45.554Z,19.80
2019-04-07T11:58:45.336Z,19.97
2019-04-07T11:59:45.906Z,19.98
2019-04-07T12:00:45.263Z,20.00
2019-04-07T12:01:48.004Z,20.02
2019-04-07T12:02:45.515Z,20.02
2019-04-07T12:03:45.383Z,20.16
2019-04-07T12:04:45.107Z,20.20
2019-04-07T12:05:46.047Z,20.22
2019-04-07T12:06:48.169Z,20.27
2019-04-07T12:07:45.792Z,20.23
2019-04-07T12:08:45.660Z,20.22
2019-04-07T12:09:45.513Z,20.26
2019-04-07T12:10:56.162Z,20.25
2019-04-07T12:11:46.426Z,20.20
2019-04-07T12:12:45.028Z,20.23
2019-04-07T12:13:45.030Z,20.27
2019-04-07T12:14:45.520Z,20.33
2019-04-07T12:15:45.191Z,20.35
2019-04-07T12:16:44.975Z,20.40
2019-04-07T12:17:45.191Z,20.50
2019-04-07T12:18:47.202Z,20.56
2019-04-07T12:19:45.041Z,20.50
2019-04-07T12:20:45.097Z,20.53
2019-04-07T12:21:45.076Z,20.66
2019-04-07T12:22:47.725Z,20.66
2019-04-07T12:23:44.905Z,20.73
2019-04-07T12:24:45.543Z,20.75
2019-04-07T12:25:44.900Z,20.76
2019-04-07T12:26:45.200Z,20.66
2019-04-07T12:27:45.981Z,20.72
2019-04-07T12:28:47.604Z,20.72
2019-04-07T12:29:46.033Z,20.66
2019-04-07T12:30:44.835Z,20.78
2019-04-07T12:31:45.023Z,20.79
2019-04-07T12:32:44.872Z,20.82
2019-04-07T12:33:44.807Z,20.91
2019-04-07T12:34:46.730Z,20.96
2019-04-07T12:35:44.893Z,20.90
2019-04-07T12:36:44.783Z,20.82
2019-04-07T12:37:44.774Z,20.85
2019-04-07T12:38:45.327Z,20.79
2019-04-07T12:39:47.313Z,20.90
2019-04-07T12:40:45.263Z,20.87
2019-04-07T12:41:44.800Z,20.91
2019-04-07T12:42:44.731Z,20.93
2019-04-07T12:43:48.375Z,20.94
2019-04-07T12:44:45.248Z,20.97
2019-04-07T12:45:45.013Z,20.85
2019-04-07T12:46:45.388Z,20.91
2019-04-07T12:47:44.999Z,20.87
2019-04-07T12:48:44.662Z,21.00
2019-04-07T12:49:45.863Z,21.00
2019-04-07T12:50:48.694Z,21.18
2019-04-07T12:51:44.599Z,21.12
2019-04-07T12:52:45.173Z,21.03
2019-04-07T12:53:45.307Z,21.11
2019-04-07T12:54:44.886Z,21.09
2019-04-07T12:55:48.889Z,21.22
2019-04-07T12:56:45.677Z,21.21
2019-04-07T12:57:44.805Z,21.19
2019-04-07T12:58:46.385Z,21.31
2019-04-07T12:59:48.139Z,21.34
2019-04-07T13:00:57.807Z,21.30
2019-04-07T13:01:48.478Z,21.37